sensor_id;sensor_type;location;lat;lon;timestamp;P1;durP1;ratioP1;P2;durP2;ratioP2
65182;SDS011;51771;51.068;-1.780;2023-06-24T00:01:10;9.38;;;3.80;;
65182;SDS011;51771;51.068;-1.780;2023-06-24T00:03:38;10.35;;;4.15;;
65182;SDS011;51771;51.068;-1.780;2023-06-24T00:06:03;13.50;;;5.43;;
65182;SDS011;51771;51.068;-1.780;2023-06-24T00:08:29;9.32;;;4.45;;
65182;SDS011;51771;51.068;-1.780;2023-06-24T00:10:59;13.73;;;4.75;;
65182;SDS011;51771;51.068;-1.780;2023-06-24T00:13:24;12.43;;;5.47;;
65182;SDS011;51771;51.068;-1.780;2023-06-24T00:15:49;8.73;;;3.83;;
65182;SDS011;51771;51.068;-1.780;2023-06-24T00:18:15;11.27;;;4.77;;
65182;SDS011;51771;51.068;-1.780;2023-06-24T00:20:40;8.48;;;3.67;;
65182;SDS011;51771;51.068;-1.780;2023-06-24T00:25:33;8.10;;;3.15;;
65182;SDS011;51771;51.068;-1.780;2023-06-24T00:27:59;13.30;;;6.82;;
65182;SDS011;51771;51.068;-1.780;2023-06-24T00:30:25;18.48;;;12.10;;
65182;SDS011;51771;51.068;-1.780;2023-06-24T00:32:50;25.67;;;16.05;;
65182;SDS011;51771;51.068;-1.780;2023-06-24T00:35:16;26.70;;;16.08;;
65182;SDS011;51771;51.068;-1.780;2023-06-24T00:37:41;21.10;;;12.65;;
65182;SDS011;51771;51.068;-1.780;2023-06-24T00:40:08;22.73;;;12.75;;
65182;SDS011;51771;51.068;-1.780;2023-06-24T00:42:41;20.88;;;10.93;;
65182;SDS011;51771;51.068;-1.780;2023-06-24T00:45:07;19.58;;;10.27;;
65182;SDS011;51771;51.068;-1.780;2023-06-24T00:47:33;9.82;;;5.35;;
65182;SDS011;51771;51.068;-1.780;2023-06-24T00:49:58;11.48;;;6.10;;
65182;SDS011;51771;51.068;-1.780;2023-06-24T00:52:24;13.10;;;4.97;;
65182;SDS011;51771;51.068;-1.780;2023-06-24T00:54:49;10.82;;;4.65;;
65182;SDS011;51771;51.068;-1.780;2023-06-24T00:57:14;12.52;;;4.65;;
65182;SDS011;51771;51.068;-1.780;2023-06-24T00:59:40;13.02;;;5.45;;
65182;SDS011;51771;51.068;-1.780;2023-06-24T01:04:34;8.90;;;4.10;;
65182;SDS011;51771;51.068;-1.780;2023-06-24T01:06:59;11.88;;;4.28;;
65182;SDS011;51771;51.068;-1.780;2023-06-24T01:09:25;8.80;;;4.35;;
65182;SDS011;51771;51.068;-1.780;2023-06-24T01:11:50;9.68;;;4.53;;
65182;SDS011;51771;51.068;-1.780;2023-06-24T01:14:16;10.63;;;4.95;;
65182;SDS011;51771;51.068;-1.780;2023-06-24T01:16:51;11.25;;;6.18;;
65182;SDS011;51771;51.068;-1.780;2023-06-24T01:19:39;12.90;;;5.68;;
65182;SDS011;51771;51.068;-1.780;2023-06-24T01:22:31;10.00;;;5.05;;
65182;SDS011;51771;51.068;-1.780;2023-06-24T01:25:14;14.85;;;7.65;;
65182;SDS011;51771;51.068;-1.780;2023-06-24T01:33:05;15.52;;;6.95;;
65182;SDS011;51771;51.068;-1.780;2023-06-24T01:35:33;12.27;;;5.43;;
65182;SDS011;51771;51.068;-1.780;2023-06-24T01:38:00;10.52;;;6.63;;
65182;SDS011;51771;51.068;-1.780;2023-06-24T01:40:34;12.00;;;6.65;;
65182;SDS011;51771;51.068;-1.780;2023-06-24T01:43:02;10.65;;;5.93;;
65182;SDS011;51771;51.068;-1.780;2023-06-24T01:45:28;10.55;;;5.85;;
65182;SDS011;51771;51.068;-1.780;2023-06-24T01:48:13;14.25;;;7.88;;
65182;SDS011;51771;51.068;-1.780;2023-06-24T01:50:39;12.07;;;6.10;;
65182;SDS011;51771;51.068;-1.780;2023-06-24T01:53:07;14.88;;;8.20;;
65182;SDS011;51771;51.068;-1.780;2023-06-24T01:55:33;13.38;;;6.03;;
65182;SDS011;51771;51.068;-1.780;2023-06-24T01:57:59;12.75;;;6.63;;
65182;SDS011;51771;51.068;-1.780;2023-06-24T02:00:25;10.95;;;5.97;;
65182;SDS011;51771;51.068;-1.780;2023-06-24T02:02:51;11.80;;;6.47;;
65182;SDS011;51771;51.068;-1.780;2023-06-24T02:05:17;12.75;;;6.35;;
65182;SDS011;51771;51.068;-1.780;2023-06-24T02:07:44;10.70;;;5.40;;
65182;SDS011;51771;51.068;-1.780;2023-06-24T02:10:09;9.85;;;4.35;;
65182;SDS011;51771;51.068;-1.780;2023-06-24T02:12:35;11.68;;;5.40;;
65182;SDS011;51771;51.068;-1.780;2023-06-24T02:15:01;9.27;;;5.05;;
65182;SDS011;51771;51.068;-1.780;2023-06-24T02:17:27;11.13;;;5.05;;
65182;SDS011;51771;51.068;-1.780;2023-06-24T02:19:54;15.27;;;5.55;;
65182;SDS011;51771;51.068;-1.780;2023-06-24T02:22:20;9.88;;;4.13;;
65182;SDS011;51771;51.068;-1.780;2023-06-24T02:24:46;11.48;;;4.50;;
65182;SDS011;51771;51.068;-1.780;2023-06-24T02:27:12;9.27;;;4.35;;
65182;SDS011;51771;51.068;-1.780;2023-06-24T02:29:38;12.05;;;5.30;;
65182;SDS011;51771;51.068;-1.780;2023-06-24T02:32:04;8.82;;;4.50;;
65182;SDS011;51771;51.068;-1.780;2023-06-24T02:34:29;6.90;;;3.53;;
65182;SDS011;51771;51.068;-1.780;2023-06-24T02:36:55;13.07;;;4.03;;
65182;SDS011;51771;51.068;-1.780;2023-06-24T02:39:20;9.33;;;4.40;;
65182;SDS011;51771;51.068;-1.780;2023-06-24T02:41:45;10.10;;;4.50;;
65182;SDS011;51771;51.068;-1.780;2023-06-24T02:44:12;12.55;;;4.57;;
65182;SDS011;51771;51.068;-1.780;2023-06-24T02:46:37;9.55;;;4.40;;
65182;SDS011;51771;51.068;-1.780;2023-06-24T02:49:04;10.43;;;4.55;;
65182;SDS011;51771;51.068;-1.780;2023-06-24T02:51:30;7.93;;;4.63;;
65182;SDS011;51771;51.068;-1.780;2023-06-24T02:53:55;8.35;;;4.57;;
65182;SDS011;51771;51.068;-1.780;2023-06-24T02:56:23;10.82;;;5.03;;
65182;SDS011;51771;51.068;-1.780;2023-06-24T02:58:49;10.50;;;4.43;;
65182;SDS011;51771;51.068;-1.780;2023-06-24T03:03:42;8.13;;;3.73;;
65182;SDS011;51771;51.068;-1.780;2023-06-24T03:06:08;9.15;;;4.35;;
65182;SDS011;51771;51.068;-1.780;2023-06-24T03:08:37;9.57;;;4.65;;
65182;SDS011;51771;51.068;-1.780;2023-06-24T03:11:02;10.18;;;4.38;;
65182;SDS011;51771;51.068;-1.780;2023-06-24T03:13:27;10.77;;;4.80;;
65182;SDS011;51771;51.068;-1.780;2023-06-24T03:15:52;12.87;;;4.00;;
65182;SDS011;51771;51.068;-1.780;2023-06-24T03:18:18;10.17;;;4.23;;
65182;SDS011;51771;51.068;-1.780;2023-06-24T03:20:43;12.57;;;4.65;;
65182;SDS011;51771;51.068;-1.780;2023-06-24T03:23:08;8.37;;;4.93;;
65182;SDS011;51771;51.068;-1.780;2023-06-24T03:25:34;12.82;;;4.93;;
65182;SDS011;51771;51.068;-1.780;2023-06-24T03:28:00;9.70;;;4.53;;
65182;SDS011;51771;51.068;-1.780;2023-06-24T03:30:34;7.95;;;4.10;;
65182;SDS011;51771;51.068;-1.780;2023-06-24T03:32:59;11.68;;;4.25;;
65182;SDS011;51771;51.068;-1.780;2023-06-24T03:35:25;11.50;;;3.95;;
65182;SDS011;51771;51.068;-1.780;2023-06-24T03:37:50;10.07;;;4.57;;
65182;SDS011;51771;51.068;-1.780;2023-06-24T03:40:15;7.90;;;4.00;;
65182;SDS011;51771;51.068;-1.780;2023-06-24T03:42:41;9.45;;;4.50;;
65182;SDS011;51771;51.068;-1.780;2023-06-24T03:45:06;8.10;;;4.03;;
65182;SDS011;51771;51.068;-1.780;2023-06-24T03:47:31;8.35;;;4.22;;
65182;SDS011;51771;51.068;-1.780;2023-06-24T03:49:57;12.23;;;4.93;;
65182;SDS011;51771;51.068;-1.780;2023-06-24T03:52:22;9.75;;;4.28;;
65182;SDS011;51771;51.068;-1.780;2023-06-24T03:54:47;9.80;;;4.32;;
65182;SDS011;51771;51.068;-1.780;2023-06-24T03:57:12;10.00;;;4.13;;
65182;SDS011;51771;51.068;-1.780;2023-06-24T03:59:38;11.00;;;4.47;;
65182;SDS011;51771;51.068;-1.780;2023-06-24T04:02:04;9.35;;;4.28;;
65182;SDS011;51771;51.068;-1.780;2023-06-24T04:04:32;9.60;;;4.47;;
65182;SDS011;51771;51.068;-1.780;2023-06-24T04:06:58;10.88;;;4.93;;
65182;SDS011;51771;51.068;-1.780;2023-06-24T04:09:23;8.70;;;4.50;;
65182;SDS011;51771;51.068;-1.780;2023-06-24T04:11:48;10.32;;;4.80;;
65182;SDS011;51771;51.068;-1.780;2023-06-24T04:14:13;7.23;;;4.03;;
65182;SDS011;51771;51.068;-1.780;2023-06-24T04:16:39;11.87;;;4.67;;
65182;SDS011;51771;51.068;-1.780;2023-06-24T04:19:05;8.57;;;4.13;;
65182;SDS011;51771;51.068;-1.780;2023-06-24T04:21:30;9.63;;;4.20;;
65182;SDS011;51771;51.068;-1.780;2023-06-24T04:23:55;7.90;;;4.85;;
65182;SDS011;51771;51.068;-1.780;2023-06-24T04:26:20;9.32;;;4.53;;
65182;SDS011;51771;51.068;-1.780;2023-06-24T04:28:46;9.47;;;4.70;;
65182;SDS011;51771;51.068;-1.780;2023-06-24T04:31:11;11.90;;;4.57;;
65182;SDS011;51771;51.068;-1.780;2023-06-24T04:33:36;8.10;;;4.00;;
65182;SDS011;51771;51.068;-1.780;2023-06-24T04:36:01;9.00;;;4.07;;
65182;SDS011;51771;51.068;-1.780;2023-06-24T04:38:27;10.55;;;5.35;;
65182;SDS011;51771;51.068;-1.780;2023-06-24T04:40:52;9.68;;;4.45;;
65182;SDS011;51771;51.068;-1.780;2023-06-24T04:43:18;11.38;;;4.30;;
65182;SDS011;51771;51.068;-1.780;2023-06-24T04:45:43;10.13;;;4.07;;
65182;SDS011;51771;51.068;-1.780;2023-06-24T04:48:08;9.93;;;4.07;;
65182;SDS011;51771;51.068;-1.780;2023-06-24T04:50:33;8.70;;;4.30;;
65182;SDS011;51771;51.068;-1.780;2023-06-24T04:52:59;13.70;;;5.15;;
65182;SDS011;51771;51.068;-1.780;2023-06-24T04:55:26;10.40;;;4.38;;
65182;SDS011;51771;51.068;-1.780;2023-06-24T04:57:51;7.63;;;3.50;;
65182;SDS011;51771;51.068;-1.780;2023-06-24T05:00:17;13.30;;;4.45;;
65182;SDS011;51771;51.068;-1.780;2023-06-24T05:02:42;9.77;;;4.07;;
65182;SDS011;51771;51.068;-1.780;2023-06-24T05:05:07;6.97;;;3.65;;
65182;SDS011;51771;51.068;-1.780;2023-06-24T05:07:33;9.80;;;3.70;;
65182;SDS011;51771;51.068;-1.780;2023-06-24T05:09:58;9.95;;;4.57;;
65182;SDS011;51771;51.068;-1.780;2023-06-24T05:12:24;8.70;;;4.22;;
65182;SDS011;51771;51.068;-1.780;2023-06-24T05:14:50;8.23;;;3.67;;
65182;SDS011;51771;51.068;-1.780;2023-06-24T05:17:15;7.68;;;3.92;;
65182;SDS011;51771;51.068;-1.780;2023-06-24T05:19:40;7.57;;;3.67;;
65182;SDS011;51771;51.068;-1.780;2023-06-24T05:22:06;9.10;;;3.83;;
65182;SDS011;51771;51.068;-1.780;2023-06-24T05:24:31;7.63;;;4.03;;
65182;SDS011;51771;51.068;-1.780;2023-06-24T05:26:56;6.55;;;3.45;;
65182;SDS011;51771;51.068;-1.780;2023-06-24T05:29:22;8.85;;;4.00;;
65182;SDS011;51771;51.068;-1.780;2023-06-24T05:31:47;10.35;;;3.75;;
65182;SDS011;51771;51.068;-1.780;2023-06-24T05:34:12;8.23;;;3.65;;
65182;SDS011;51771;51.068;-1.780;2023-06-24T05:36:38;6.85;;;3.28;;
65182;SDS011;51771;51.068;-1.780;2023-06-24T05:39:03;7.73;;;4.10;;
65182;SDS011;51771;51.068;-1.780;2023-06-24T05:41:30;10.32;;;3.80;;
65182;SDS011;51771;51.068;-1.780;2023-06-24T05:44:02;7.40;;;3.92;;
65182;SDS011;51771;51.068;-1.780;2023-06-24T05:46:27;11.30;;;4.43;;
65182;SDS011;51771;51.068;-1.780;2023-06-24T05:48:53;9.77;;;4.27;;
65182;SDS011;51771;51.068;-1.780;2023-06-24T05:51:18;7.60;;;3.73;;
65182;SDS011;51771;51.068;-1.780;2023-06-24T05:53:43;8.70;;;3.90;;
65182;SDS011;51771;51.068;-1.780;2023-06-24T05:56:08;9.13;;;3.60;;
65182;SDS011;51771;51.068;-1.780;2023-06-24T05:58:33;8.43;;;3.80;;
65182;SDS011;51771;51.068;-1.780;2023-06-24T06:00:59;9.57;;;3.92;;
65182;SDS011;51771;51.068;-1.780;2023-06-24T06:03:26;7.82;;;3.58;;
65182;SDS011;51771;51.068;-1.780;2023-06-24T06:05:51;8.93;;;3.70;;
65182;SDS011;51771;51.068;-1.780;2023-06-24T06:08:16;7.30;;;4.00;;
65182;SDS011;51771;51.068;-1.780;2023-06-24T06:10:42;7.35;;;3.65;;
65182;SDS011;51771;51.068;-1.780;2023-06-24T06:13:07;9.32;;;4.32;;
65182;SDS011;51771;51.068;-1.780;2023-06-24T06:15:32;7.27;;;3.43;;
65182;SDS011;51771;51.068;-1.780;2023-06-24T06:17:57;7.87;;;4.20;;
65182;SDS011;51771;51.068;-1.780;2023-06-24T06:20:22;7.60;;;3.63;;
65182;SDS011;51771;51.068;-1.780;2023-06-24T06:22:48;7.00;;;3.43;;
65182;SDS011;51771;51.068;-1.780;2023-06-24T06:25:13;7.38;;;3.83;;
65182;SDS011;51771;51.068;-1.780;2023-06-24T06:27:38;6.80;;;3.53;;
65182;SDS011;51771;51.068;-1.780;2023-06-24T06:30:04;8.07;;;3.70;;
65182;SDS011;51771;51.068;-1.780;2023-06-24T06:32:29;6.75;;;3.97;;
65182;SDS011;51771;51.068;-1.780;2023-06-24T06:34:54;9.43;;;3.55;;
65182;SDS011;51771;51.068;-1.780;2023-06-24T06:37:19;8.70;;;3.55;;
65182;SDS011;51771;51.068;-1.780;2023-06-24T06:39:45;9.63;;;3.78;;
65182;SDS011;51771;51.068;-1.780;2023-06-24T06:42:10;8.25;;;3.60;;
65182;SDS011;51771;51.068;-1.780;2023-06-24T06:44:39;8.88;;;3.70;;
65182;SDS011;51771;51.068;-1.780;2023-06-24T06:47:05;6.53;;;3.60;;
65182;SDS011;51771;51.068;-1.780;2023-06-24T06:49:30;10.68;;;4.00;;
65182;SDS011;51771;51.068;-1.780;2023-06-24T06:51:55;7.63;;;3.47;;
65182;SDS011;51771;51.068;-1.780;2023-06-24T06:54:20;8.63;;;3.87;;
65182;SDS011;51771;51.068;-1.780;2023-06-24T06:56:46;7.32;;;3.13;;
65182;SDS011;51771;51.068;-1.780;2023-06-24T06:59:11;8.15;;;3.72;;
65182;SDS011;51771;51.068;-1.780;2023-06-24T07:01:36;10.68;;;3.80;;
65182;SDS011;51771;51.068;-1.780;2023-06-24T07:04:01;8.93;;;3.50;;
65182;SDS011;51771;51.068;-1.780;2023-06-24T07:06:27;6.35;;;3.08;;
65182;SDS011;51771;51.068;-1.780;2023-06-24T07:08:52;9.63;;;4.07;;
65182;SDS011;51771;51.068;-1.780;2023-06-24T07:11:18;6.47;;;3.40;;
65182;SDS011;51771;51.068;-1.780;2023-06-24T07:13:43;5.87;;;2.73;;
65182;SDS011;51771;51.068;-1.780;2023-06-24T07:16:09;8.82;;;3.33;;
65182;SDS011;51771;51.068;-1.780;2023-06-24T07:18:35;7.60;;;3.97;;
65182;SDS011;51771;51.068;-1.780;2023-06-24T07:21:00;5.72;;;3.22;;
65182;SDS011;51771;51.068;-1.780;2023-06-24T07:23:26;11.27;;;3.20;;
65182;SDS011;51771;51.068;-1.780;2023-06-24T07:25:51;7.97;;;3.33;;
65182;SDS011;51771;51.068;-1.780;2023-06-24T07:28:17;6.93;;;3.25;;
65182;SDS011;51771;51.068;-1.780;2023-06-24T07:30:42;7.27;;;3.50;;
65182;SDS011;51771;51.068;-1.780;2023-06-24T07:33:07;6.35;;;2.97;;
65182;SDS011;51771;51.068;-1.780;2023-06-24T07:35:33;8.70;;;3.30;;
65182;SDS011;51771;51.068;-1.780;2023-06-24T07:37:58;5.97;;;3.17;;
65182;SDS011;51771;51.068;-1.780;2023-06-24T07:40:24;7.53;;;2.80;;
65182;SDS011;51771;51.068;-1.780;2023-06-24T07:42:49;4.72;;;2.53;;
65182;SDS011;51771;51.068;-1.780;2023-06-24T07:45:14;6.60;;;2.73;;
65182;SDS011;51771;51.068;-1.780;2023-06-24T07:47:39;5.30;;;2.47;;
65182;SDS011;51771;51.068;-1.780;2023-06-24T07:50:05;5.35;;;2.58;;
65182;SDS011;51771;51.068;-1.780;2023-06-24T07:52:31;5.65;;;2.70;;
65182;SDS011;51771;51.068;-1.780;2023-06-24T07:54:56;5.63;;;2.80;;
65182;SDS011;51771;51.068;-1.780;2023-06-24T07:57:21;4.90;;;2.50;;
65182;SDS011;51771;51.068;-1.780;2023-06-24T07:59:47;6.90;;;2.88;;
65182;SDS011;51771;51.068;-1.780;2023-06-24T08:02:12;5.65;;;2.45;;
65182;SDS011;51771;51.068;-1.780;2023-06-24T08:04:37;5.32;;;2.67;;
65182;SDS011;51771;51.068;-1.780;2023-06-24T08:07:03;6.17;;;2.60;;
65182;SDS011;51771;51.068;-1.780;2023-06-24T08:09:28;5.68;;;2.50;;
65182;SDS011;51771;51.068;-1.780;2023-06-24T08:11:53;7.07;;;2.70;;
65182;SDS011;51771;51.068;-1.780;2023-06-24T08:14:18;5.15;;;2.38;;
65182;SDS011;51771;51.068;-1.780;2023-06-24T08:16:44;6.33;;;2.47;;
65182;SDS011;51771;51.068;-1.780;2023-06-24T08:19:09;6.78;;;2.80;;
65182;SDS011;51771;51.068;-1.780;2023-06-24T08:21:34;5.40;;;2.75;;
65182;SDS011;51771;51.068;-1.780;2023-06-24T08:23:59;5.88;;;2.72;;
65182;SDS011;51771;51.068;-1.780;2023-06-24T08:26:25;5.60;;;2.37;;
65182;SDS011;51771;51.068;-1.780;2023-06-24T08:28:50;5.60;;;2.40;;
65182;SDS011;51771;51.068;-1.780;2023-06-24T08:31:15;5.07;;;2.20;;
65182;SDS011;51771;51.068;-1.780;2023-06-24T08:33:44;4.30;;;2.03;;
65182;SDS011;51771;51.068;-1.780;2023-06-24T08:36:20;5.95;;;2.47;;
65182;SDS011;51771;51.068;-1.780;2023-06-24T08:38:48;7.15;;;2.28;;
65182;SDS011;51771;51.068;-1.780;2023-06-24T08:41:13;6.40;;;2.30;;
65182;SDS011;51771;51.068;-1.780;2023-06-24T08:43:39;5.40;;;2.47;;
65182;SDS011;51771;51.068;-1.780;2023-06-24T08:46:05;4.97;;;2.20;;
65182;SDS011;51771;51.068;-1.780;2023-06-24T08:48:30;4.65;;;2.38;;
65182;SDS011;51771;51.068;-1.780;2023-06-24T08:50:56;5.93;;;2.30;;
65182;SDS011;51771;51.068;-1.780;2023-06-24T08:53:22;4.97;;;2.30;;
65182;SDS011;51771;51.068;-1.780;2023-06-24T08:55:49;5.70;;;2.50;;
65182;SDS011;51771;51.068;-1.780;2023-06-24T08:58:18;5.57;;;2.30;;
65182;SDS011;51771;51.068;-1.780;2023-06-24T09:00:43;6.10;;;2.50;;
65182;SDS011;51771;51.068;-1.780;2023-06-24T09:03:08;6.40;;;2.83;;
65182;SDS011;51771;51.068;-1.780;2023-06-24T09:05:34;5.20;;;2.27;;
65182;SDS011;51771;51.068;-1.780;2023-06-24T09:07:59;5.97;;;2.40;;
65182;SDS011;51771;51.068;-1.780;2023-06-24T09:10:34;5.47;;;2.55;;
65182;SDS011;51771;51.068;-1.780;2023-06-24T09:13:03;5.75;;;2.92;;
65182;SDS011;51771;51.068;-1.780;2023-06-24T09:17:56;4.78;;;2.40;;
65182;SDS011;51771;51.068;-1.780;2023-06-24T09:20:22;5.57;;;2.47;;
65182;SDS011;51771;51.068;-1.780;2023-06-24T09:22:48;6.07;;;2.35;;
65182;SDS011;51771;51.068;-1.780;2023-06-24T09:25:17;5.85;;;2.40;;
65182;SDS011;51771;51.068;-1.780;2023-06-24T09:27:46;6.10;;;2.10;;
65182;SDS011;51771;51.068;-1.780;2023-06-24T09:30:19;4.50;;;2.20;;
65182;SDS011;51771;51.068;-1.780;2023-06-24T09:32:45;6.43;;;2.40;;
65182;SDS011;51771;51.068;-1.780;2023-06-24T09:35:10;5.68;;;2.58;;
65182;SDS011;51771;51.068;-1.780;2023-06-24T09:37:35;4.60;;;1.88;;
65182;SDS011;51771;51.068;-1.780;2023-06-24T09:40:01;5.87;;;2.00;;
65182;SDS011;51771;51.068;-1.780;2023-06-24T09:42:29;4.03;;;1.90;;
65182;SDS011;51771;51.068;-1.780;2023-06-24T09:44:55;4.57;;;2.15;;
65182;SDS011;51771;51.068;-1.780;2023-06-24T09:47:20;4.88;;;2.13;;
65182;SDS011;51771;51.068;-1.780;2023-06-24T09:49:49;4.20;;;1.80;;
65182;SDS011;51771;51.068;-1.780;2023-06-24T09:52:15;5.13;;;2.25;;
65182;SDS011;51771;51.068;-1.780;2023-06-24T09:54:41;4.65;;;2.80;;
65182;SDS011;51771;51.068;-1.780;2023-06-24T09:57:07;6.47;;;2.15;;
65182;SDS011;51771;51.068;-1.780;2023-06-24T09:59:34;4.20;;;1.80;;
65182;SDS011;51771;51.068;-1.780;2023-06-24T10:01:59;4.57;;;1.90;;
65182;SDS011;51771;51.068;-1.780;2023-06-24T10:04:25;4.82;;;2.10;;
65182;SDS011;51771;51.068;-1.780;2023-06-24T10:06:51;5.40;;;2.25;;
65182;SDS011;51771;51.068;-1.780;2023-06-24T10:09:16;4.73;;;1.80;;
65182;SDS011;51771;51.068;-1.780;2023-06-24T10:11:46;4.93;;;1.80;;
65182;SDS011;51771;51.068;-1.780;2023-06-24T10:14:12;6.43;;;2.00;;
65182;SDS011;51771;51.068;-1.780;2023-06-24T10:16:37;4.40;;;1.95;;
65182;SDS011;51771;51.068;-1.780;2023-06-24T10:19:03;4.10;;;1.90;;
65182;SDS011;51771;51.068;-1.780;2023-06-24T10:24:13;5.10;;;2.05;;
65182;SDS011;51771;51.068;-1.780;2023-06-24T10:26:39;5.63;;;1.90;;
65182;SDS011;51771;51.068;-1.780;2023-06-24T10:44:47;3.53;;;1.50;;
65182;SDS011;51771;51.068;-1.780;2023-06-24T10:47:12;3.13;;;1.40;;
65182;SDS011;51771;51.068;-1.780;2023-06-24T10:49:37;4.00;;;1.70;;
65182;SDS011;51771;51.068;-1.780;2023-06-24T10:52:02;3.70;;;1.50;;
65182;SDS011;51771;51.068;-1.780;2023-06-24T10:54:28;3.10;;;1.33;;
65182;SDS011;51771;51.068;-1.780;2023-06-24T10:56:54;3.90;;;1.50;;
65182;SDS011;51771;51.068;-1.780;2023-06-24T10:59:20;3.78;;;1.60;;
65182;SDS011;51771;51.068;-1.780;2023-06-24T11:01:52;4.75;;;1.73;;
65182;SDS011;51771;51.068;-1.780;2023-06-24T11:04:18;4.90;;;1.60;;
65182;SDS011;51771;51.068;-1.780;2023-06-24T11:06:56;3.57;;;1.63;;
65182;SDS011;51771;51.068;-1.780;2023-06-24T11:09:21;3.45;;;1.52;;
65182;SDS011;51771;51.068;-1.780;2023-06-24T11:11:46;4.60;;;1.50;;
65182;SDS011;51771;51.068;-1.780;2023-06-24T11:14:11;3.80;;;1.70;;
65182;SDS011;51771;51.068;-1.780;2023-06-24T11:16:37;4.00;;;1.50;;
65182;SDS011;51771;51.068;-1.780;2023-06-24T11:19:04;4.10;;;1.52;;
65182;SDS011;51771;51.068;-1.780;2023-06-24T11:21:30;4.72;;;1.60;;
65182;SDS011;51771;51.068;-1.780;2023-06-24T11:23:59;3.42;;;1.30;;
65182;SDS011;51771;51.068;-1.780;2023-06-24T11:26:24;3.20;;;1.40;;
65182;SDS011;51771;51.068;-1.780;2023-06-24T11:28:50;4.13;;;1.80;;
65182;SDS011;51771;51.068;-1.780;2023-06-24T11:31:15;4.15;;;2.10;;
65182;SDS011;51771;51.068;-1.780;2023-06-24T11:33:40;3.37;;;1.40;;
65182;SDS011;51771;51.068;-1.780;2023-06-24T11:36:12;3.17;;;1.58;;
65182;SDS011;51771;51.068;-1.780;2023-06-24T11:38:37;4.18;;;1.75;;
65182;SDS011;51771;51.068;-1.780;2023-06-24T11:41:02;5.27;;;1.60;;
65182;SDS011;51771;51.068;-1.780;2023-06-24T11:43:27;3.97;;;1.67;;
65182;SDS011;51771;51.068;-1.780;2023-06-24T11:45:54;3.38;;;1.55;;
65182;SDS011;51771;51.068;-1.780;2023-06-24T11:48:19;3.63;;;1.70;;
65182;SDS011;51771;51.068;-1.780;2023-06-24T11:50:49;4.85;;;1.75;;
65182;SDS011;51771;51.068;-1.780;2023-06-24T11:53:17;4.80;;;1.80;;
65182;SDS011;51771;51.068;-1.780;2023-06-24T11:55:45;3.40;;;1.60;;
65182;SDS011;51771;51.068;-1.780;2023-06-24T11:58:18;3.90;;;1.67;;
65182;SDS011;51771;51.068;-1.780;2023-06-24T12:00:44;4.15;;;1.45;;
65182;SDS011;51771;51.068;-1.780;2023-06-24T12:03:12;3.75;;;1.40;;
65182;SDS011;51771;51.068;-1.780;2023-06-24T12:05:37;4.10;;;1.70;;
65182;SDS011;51771;51.068;-1.780;2023-06-24T12:08:05;4.45;;;2.03;;
65182;SDS011;51771;51.068;-1.780;2023-06-24T12:10:34;3.80;;;1.70;;
65182;SDS011;51771;51.068;-1.780;2023-06-24T12:13:00;4.75;;;1.75;;
65182;SDS011;51771;51.068;-1.780;2023-06-24T12:15:26;3.97;;;1.77;;
65182;SDS011;51771;51.068;-1.780;2023-06-24T12:17:51;4.05;;;1.75;;
65182;SDS011;51771;51.068;-1.780;2023-06-24T12:20:17;4.75;;;2.13;;
65182;SDS011;51771;51.068;-1.780;2023-06-24T12:22:44;3.65;;;1.70;;
65182;SDS011;51771;51.068;-1.780;2023-06-24T12:25:10;4.10;;;2.13;;
65182;SDS011;51771;51.068;-1.780;2023-06-24T12:27:35;4.20;;;1.80;;
65182;SDS011;51771;51.068;-1.780;2023-06-24T12:30:00;4.38;;;2.15;;
65182;SDS011;51771;51.068;-1.780;2023-06-24T12:32:26;4.07;;;1.90;;
65182;SDS011;51771;51.068;-1.780;2023-06-24T12:34:52;5.00;;;1.65;;
65182;SDS011;51771;51.068;-1.780;2023-06-24T12:37:17;4.10;;;1.80;;
65182;SDS011;51771;51.068;-1.780;2023-06-24T12:39:43;4.18;;;1.60;;
65182;SDS011;51771;51.068;-1.780;2023-06-24T12:42:08;3.72;;;1.58;;
65182;SDS011;51771;51.068;-1.780;2023-06-24T12:44:33;3.75;;;1.75;;
65182;SDS011;51771;51.068;-1.780;2023-06-24T12:46:59;3.20;;;1.43;;
65182;SDS011;51771;51.068;-1.780;2023-06-24T12:49:24;4.25;;;1.77;;
65182;SDS011;51771;51.068;-1.780;2023-06-24T12:51:49;4.83;;;2.13;;
65182;SDS011;51771;51.068;-1.780;2023-06-24T12:54:14;4.53;;;1.60;;
65182;SDS011;51771;51.068;-1.780;2023-06-24T12:56:40;3.70;;;1.55;;
65182;SDS011;51771;51.068;-1.780;2023-06-24T12:59:05;3.90;;;1.63;;
65182;SDS011;51771;51.068;-1.780;2023-06-24T13:01:31;4.38;;;1.88;;
65182;SDS011;51771;51.068;-1.780;2023-06-24T13:03:56;6.32;;;1.60;;
65182;SDS011;51771;51.068;-1.780;2023-06-24T13:06:21;3.60;;;1.43;;
65182;SDS011;51771;51.068;-1.780;2023-06-24T13:08:46;4.50;;;2.20;;
65182;SDS011;51771;51.068;-1.780;2023-06-24T13:11:11;4.03;;;1.90;;
65182;SDS011;51771;51.068;-1.780;2023-06-24T13:13:37;4.00;;;1.75;;
65182;SDS011;51771;51.068;-1.780;2023-06-24T13:16:02;4.23;;;1.57;;
65182;SDS011;51771;51.068;-1.780;2023-06-24T13:18:27;5.30;;;1.83;;
65182;SDS011;51771;51.068;-1.780;2023-06-24T13:20:52;4.97;;;1.95;;
65182;SDS011;51771;51.068;-1.780;2023-06-24T13:23:18;5.25;;;1.83;;
65182;SDS011;51771;51.068;-1.780;2023-06-24T13:25:43;4.80;;;2.03;;
65182;SDS011;51771;51.068;-1.780;2023-06-24T13:28:11;4.30;;;1.85;;
65182;SDS011;51771;51.068;-1.780;2023-06-24T13:30:36;3.35;;;1.48;;
65182;SDS011;51771;51.068;-1.780;2023-06-24T13:33:02;3.30;;;1.40;;
65182;SDS011;51771;51.068;-1.780;2023-06-24T13:35:27;4.13;;;1.55;;
65182;SDS011;51771;51.068;-1.780;2023-06-24T13:37:52;4.40;;;1.73;;
65182;SDS011;51771;51.068;-1.780;2023-06-24T13:40:18;3.83;;;1.55;;
65182;SDS011;51771;51.068;-1.780;2023-06-24T13:42:43;3.85;;;1.60;;
65182;SDS011;51771;51.068;-1.780;2023-06-24T13:45:08;4.00;;;1.55;;
65182;SDS011;51771;51.068;-1.780;2023-06-24T13:47:34;3.58;;;1.17;;
65182;SDS011;51771;51.068;-1.780;2023-06-24T13:49:59;4.22;;;1.50;;
65182;SDS011;51771;51.068;-1.780;2023-06-24T13:52:25;4.28;;;1.30;;
65182;SDS011;51771;51.068;-1.780;2023-06-24T13:54:51;4.95;;;1.90;;
65182;SDS011;51771;51.068;-1.780;2023-06-24T13:57:16;3.50;;;1.52;;
65182;SDS011;51771;51.068;-1.780;2023-06-24T13:59:41;3.47;;;1.23;;
65182;SDS011;51771;51.068;-1.780;2023-06-24T14:02:07;3.63;;;1.40;;
65182;SDS011;51771;51.068;-1.780;2023-06-24T14:04:33;3.47;;;1.55;;
65182;SDS011;51771;51.068;-1.780;2023-06-24T14:06:59;4.22;;;1.58;;
65182;SDS011;51771;51.068;-1.780;2023-06-24T14:09:24;3.85;;;1.58;;
65182;SDS011;51771;51.068;-1.780;2023-06-24T14:11:49;4.63;;;1.58;;
65182;SDS011;51771;51.068;-1.780;2023-06-24T14:14:15;4.22;;;1.42;;
65182;SDS011;51771;51.068;-1.780;2023-06-24T14:16:40;3.93;;;1.30;;
65182;SDS011;51771;51.068;-1.780;2023-06-24T14:19:06;3.90;;;1.53;;
65182;SDS011;51771;51.068;-1.780;2023-06-24T14:21:31;3.88;;;1.50;;
65182;SDS011;51771;51.068;-1.780;2023-06-24T14:23:57;4.57;;;1.50;;
65182;SDS011;51771;51.068;-1.780;2023-06-24T14:26:22;3.78;;;1.60;;
65182;SDS011;51771;51.068;-1.780;2023-06-24T14:28:47;4.07;;;1.55;;
65182;SDS011;51771;51.068;-1.780;2023-06-24T14:31:12;3.67;;;1.40;;
65182;SDS011;51771;51.068;-1.780;2023-06-24T14:33:38;3.90;;;1.50;;
65182;SDS011;51771;51.068;-1.780;2023-06-24T14:36:03;3.33;;;1.30;;
65182;SDS011;51771;51.068;-1.780;2023-06-24T14:38:28;4.10;;;1.63;;
65182;SDS011;51771;51.068;-1.780;2023-06-24T14:40:53;4.60;;;1.60;;
65182;SDS011;51771;51.068;-1.780;2023-06-24T14:43:21;3.17;;;1.40;;
65182;SDS011;51771;51.068;-1.780;2023-06-24T14:45:46;4.22;;;1.30;;
65182;SDS011;51771;51.068;-1.780;2023-06-24T14:48:12;4.03;;;1.40;;
65182;SDS011;51771;51.068;-1.780;2023-06-24T14:50:37;5.10;;;1.73;;
65182;SDS011;51771;51.068;-1.780;2023-06-24T14:53:02;3.10;;;1.35;;
65182;SDS011;51771;51.068;-1.780;2023-06-24T14:55:28;3.50;;;1.35;;
65182;SDS011;51771;51.068;-1.780;2023-06-24T14:57:53;3.63;;;1.40;;